Time;durP1;ratioP1;P1;durP2;ratioP2;P2;SDS_P1;SDS_P2;PMS_P1;PMS_P2;Temp;Humidity;BMP_temperature;BMP_pressure;BME280_temperature;BME280_humidity;BME280_pressure;Samples;Min_cycle;Max_cycle;Signal;HPM_P1;HPM_P2
2022/10/15 00:02:19;;;;;;;37.00;24.73;;;12.80;99.90;;;;;;5053389;28;20037;-82
2022/10/15 00:04:47;;;;;;;38.33;24.83;;;12.80;99.90;;;;;;5035953;28;20139;-81
2022/10/15 00:07:12;;;;;;;35.30;25.20;;;12.70;99.90;;;;;;5053926;28;20135;-81
2022/10/15 00:09:38;;;;;;;33.42;22.75;;;12.70;99.90;;;;;;5053955;28;20076;-81
2022/10/15 00:12:04;;;;;;;37.95;25.45;;;12.70;99.90;;;;;;5053210;28;20485;-80
2022/10/15 00:14:30;;;;;;;35.63;23.65;;;12.70;99.90;;;;;;5069167;28;20095;-80
2022/10/15 00:16:55;;;;;;;35.80;23.33;;;12.70;99.90;;;;;;5053544;28;20075;-81
2022/10/15 00:19:21;;;;;;;42.10;27.63;;;12.70;99.90;;;;;;5051919;28;20044;-80
2022/10/15 00:21:47;;;;;;;35.58;24.85;;;12.70;99.90;;;;;;5053153;28;20088;-82
2022/10/15 00:24:12;;;;;;;34.15;23.95;;;12.70;99.90;;;;;;5053961;28;20436;-80
2022/10/15 00:26:38;;;;;;;34.88;24.65;;;12.70;99.90;;;;;;5053263;28;20044;-82
2022/10/15 00:29:04;;;;;;;37.00;23.65;;;12.80;99.90;;;;;;5053582;28;20120;-81
2022/10/15 00:31:31;;;;;;;34.47;25.25;;;12.70;99.90;;;;;;5053197;28;20037;-82
2022/10/15 00:33:59;;;;;;;35.35;25.95;;;12.70;99.90;;;;;;5068574;28;20083;-80
2022/10/15 00:36:30;;;;;;;31.55;21.67;;;12.70;99.90;;;;;;5053046;28;20045;-81
2022/10/15 00:38:57;;;;;;;37.10;23.30;;;12.70;99.90;;;;;;5051717;28;20056;-80
2022/10/15 00:41:28;;;;;;;35.42;24.83;;;12.70;99.90;;;;;;5052647;28;20052;-80
2022/10/15 00:43:57;;;;;;;38.13;26.48;;;12.70;99.90;;;;;;5053033;28;20048;-82
2022/10/15 00:46:27;;;;;;;34.83;25.00;;;12.60;99.90;;;;;;5053337;28;20049;-80
2022/10/15 00:49:23;;;;;;;37.75;25.60;;;12.60;99.90;;;;;;5052697;28;20045;-81
2022/10/15 00:52:01;;;;;;;41.53;25.88;;;12.60;99.90;;;;;;5052764;28;20052;-82
2022/10/15 00:54:31;;;;;;;38.63;26.50;;;12.70;99.90;;;;;;5052922;28;20048;-80
2022/10/15 00:56:58;;;;;;;37.28;26.33;;;12.70;99.90;;;;;;5052862;28;20075;-80
2022/10/15 00:59:26;;;;;;;40.35;25.92;;;12.60;99.90;;;;;;5052813;28;20389;-81
2022/10/15 01:01:53;;;;;;;29.33;23.52;;;12.60;99.90;;;;;;5052388;28;20124;-80
2022/10/15 01:04:19;;;;;;;41.33;28.00;;;12.60;99.90;;;;;;5052608;28;20053;-80
2022/10/15 01:06:45;;;;;;;37.10;24.45;;;12.70;99.90;;;;;;5052453;28;20084;-81
2022/10/15 01:09:12;;;;;;;39.08;25.98;;;12.60;99.90;;;;;;5052445;28;20095;-81
2022/10/15 01:11:43;;;;;;;33.90;22.98;;;12.70;99.90;;;;;;5052338;28;20098;-81
2022/10/15 01:14:30;;;;;;;35.10;26.35;;;12.70;99.90;;;;;;5052797;28;20049;-81
2022/10/15 01:17:08;;;;;;;35.72;23.42;;;12.70;99.90;;;;;;5052738;28;20053;-80
2022/10/15 01:20:21;;;;;;;36.35;23.45;;;13.00;99.90;;;;;;5085387;28;20395;-80
2022/10/15 01:23:12;;;;;;;35.65;26.33;;;12.70;99.90;;;;;;5018359;28;20088;-81
2022/10/15 01:25:47;;;;;;;41.08;23.20;;;12.70;99.90;;;;;;5052192;28;20044;-81
2022/10/15 01:28:31;;;;;;;35.70;23.67;;;12.70;99.90;;;;;;5051789;28;20445;-80
2022/10/15 01:31:08;;;;;;;;;;;12.70;99.90;;;;;;5052476;28;20467;-80
2022/10/15 01:33:55;;;;;;;34.83;22.65;;;12.60;99.90;;;;;;5052236;28;19921;-80
2022/10/15 01:36:34;;;;;;;37.25;26.83;;;12.70;99.90;;;;;;5052114;28;20095;-81
2022/10/15 01:39:11;;;;;;;37.85;24.20;;;12.60;99.90;;;;;;5052073;28;20045;-80
2022/10/15 01:41:45;;;;;;;35.17;25.67;;;12.70;99.90;;;;;;5052155;28;20049;-81
2022/10/15 01:44:17;;;;;;;33.03;20.70;;;12.60;99.90;;;;;;5051572;28;20082;-80
2022/10/15 01:46:57;;;;;;;38.63;26.25;;;12.60;99.90;;;;;;5052252;28;20114;-80
2022/10/15 01:49:27;;;;;;;36.75;24.52;;;12.70;99.90;;;;;;5056432;28;20064;-80
2022/10/15 01:51:56;;;;;;;38.97;25.55;;;12.70;99.90;;;;;;5055301;28;20105;-85
2022/10/15 01:54:25;;;;;;;33.05;22.17;;;12.60;99.90;;;;;;5054742;28;20107;-82
2022/10/15 01:56:52;;;;;;;35.33;21.13;;;12.70;99.90;;;;;;5056249;28;20061;-80
2022/10/15 01:59:22;;;;;;;37.80;23.15;;;12.70;99.90;;;;;;5056555;28;20049;-81
2022/10/15 02:01:48;;;;;;;37.35;24.30;;;12.70;99.90;;;;;;5056234;28;20052;-83
2022/10/15 02:04:28;;;;;;;37.83;25.83;;;12.70;99.90;;;;;;5055710;28;20393;-81
2022/10/15 02:06:57;;;;;;;35.30;23.00;;;12.70;99.90;;;;;;5055090;28;20436;-80
2022/10/15 02:09:43;;;;;;;34.88;23.98;;;12.70;99.90;;;;;;5055893;28;20073;-81
2022/10/15 02:12:18;;;;;;;36.00;23.70;;;12.70;99.90;;;;;;5055883;28;20132;-80
2022/10/15 02:14:52;;;;;;;37.38;26.20;;;12.60;99.90;;;;;;5056201;28;20048;-80
2022/10/15 02:17:23;;;;;;;35.63;26.02;;;12.70;99.90;;;;;;5055704;28;20060;-80
2022/10/15 02:19:58;;;;;;;38.85;25.17;;;12.70;99.90;;;;;;5055728;28;20049;-80
2022/10/15 02:22:31;;;;;;;34.35;23.70;;;12.70;99.90;;;;;;5055314;28;20538;-81
2022/10/15 02:25:18;;;;;;;44.97;24.83;;;12.70;99.90;;;;;;5055456;28;20482;-81
2022/10/15 02:27:47;;;;;;;36.70;25.80;;;12.70;99.90;;;;;;5055591;28;20083;-81
2022/10/15 02:30:14;;;;;;;38.88;26.10;;;12.60;99.90;;;;;;5055856;28;20041;-81
2022/10/15 02:32:41;;;;;;;38.60;26.48;;;12.70;99.90;;;;;;5055391;28;20045;-81
2022/10/15 02:35:08;;;;;;;37.58;27.02;;;12.60;99.90;;;;;;5055330;28;20049;-80
2022/10/15 02:37:35;;;;;;;38.30;25.65;;;12.70;99.90;;;;;;5055374;28;20049;-81
2022/10/15 02:40:01;;;;;;;39.30;24.33;;;12.70;99.90;;;;;;5055266;28;20049;-80
2022/10/15 02:42:27;;;;;;;33.53;22.92;;;12.60;99.90;;;;;;5055420;28;20473;-82
2022/10/15 02:44:53;;;;;;;38.13;24.55;;;12.70;99.90;;;;;;5055157;28;20044;-80
2022/10/15 02:47:18;;;;;;;32.50;23.83;;;12.60;99.90;;;;;;5055004;28;20047;-80
2022/10/15 02:49:44;;;;;;;41.85;27.83;;;12.70;99.90;;;;;;5054896;28;20040;-80
2022/10/15 02:52:10;;;;;;;31.80;22.67;;;12.60;99.90;;;;;;5055472;28;20124;-80
2022/10/15 02:54:35;;;;;;;32.95;22.10;;;12.60;99.90;;;;;;5055035;28;20482;-80
2022/10/15 02:57:01;;;;;;;30.38;22.33;;;12.70;99.90;;;;;;5054610;28;20128;-82
2022/10/15 02:59:27;;;;;;;35.95;24.42;;;12.70;99.90;;;;;;5053777;28;20048;-82
2022/10/15 03:01:52;;;;;;;35.75;24.15;;;12.70;99.90;;;;;;5055172;28;20044;-81
2022/10/15 03:04:18;;;;;;;35.97;23.33;;;12.70;99.90;;;;;;5054630;28;20037;-81
2022/10/15 03:06:44;;;;;;;34.72;24.40;;;12.60;99.90;;;;;;5053681;28;20098;-81
2022/10/15 03:09:10;;;;;;;34.70;25.67;;;12.70;99.90;;;;;;5054597;28;20044;-81
2022/10/15 03:11:37;;;;;;;32.45;23.92;;;12.70;99.90;;;;;;5055165;28;20045;-81
2022/10/15 03:14:03;;;;;;;33.90;22.83;;;12.70;99.90;;;;;;5054684;28;20045;-78
2022/10/15 03:16:28;;;;;;;40.67;24.58;;;12.70;99.90;;;;;;5055068;28;20106;-79
2022/10/15 03:18:54;;;;;;;34.20;20.83;;;12.60;99.90;;;;;;5054047;28;20414;-80
2022/10/15 03:21:20;;;;;;;34.97;22.63;;;12.60;99.90;;;;;;5054523;28;20044;-80
2022/10/15 03:23:46;;;;;;;34.55;23.05;;;12.60;99.90;;;;;;5054767;28;20577;-78
2022/10/15 03:26:12;;;;;;;33.30;23.77;;;12.60;99.90;;;;;;5054382;28;20049;-78
2022/10/15 03:28:37;;;;;;;32.90;22.98;;;12.60;99.90;;;;;;5054476;28;20131;-79
2022/10/15 03:31:03;;;;;;;32.95;21.52;;;12.50;99.90;;;;;;5053495;28;20092;-78
2022/10/15 03:33:29;;;;;;;33.35;22.13;;;12.60;99.90;;;;;;5054211;28;20048;-79
2022/10/15 03:35:56;;;;;;;32.28;20.60;;;12.60;99.90;;;;;;5054279;28;20056;-79
2022/10/15 03:38:22;;;;;;;30.73;21.35;;;12.60;99.90;;;;;;5054359;28;20061;-78
2022/10/15 03:40:47;;;;;;;28.42;20.45;;;12.60;99.90;;;;;;5054056;28;20443;-80
2022/10/15 03:43:13;;;;;;;33.45;22.08;;;12.50;99.90;;;;;;5052982;28;20055;-79
2022/10/15 03:45:38;;;;;;;28.98;20.05;;;12.60;99.90;;;;;;5054240;28;20052;-78
2022/10/15 03:48:05;;;;;;;32.78;22.02;;;12.60;99.90;;;;;;5053184;28;20471;-79
2022/10/15 03:50:30;;;;;;;30.05;19.67;;;12.60;99.90;;;;;;5054295;28;20036;-79
2022/10/15 03:52:56;;;;;;;30.63;19.02;;;12.60;99.90;;;;;;5053877;28;20053;-79
2022/10/15 03:55:22;;;;;;;30.08;20.77;;;12.60;99.90;;;;;;5053734;28;20041;-78
2022/10/15 03:57:47;;;;;;;30.00;20.42;;;12.60;99.90;;;;;;5054795;28;20052;-80
2022/10/15 04:00:13;;;;;;;33.55;19.85;;;12.60;99.90;;;;;;5052887;28;20475;-79
2022/10/15 04:02:39;;;;;;;28.92;19.88;;;12.60;99.90;;;;;;5053151;28;20059;-79
2022/10/15 04:05:05;;;;;;;31.30;20.92;;;12.60;99.90;;;;;;5053753;28;20041;-82
2022/10/15 04:07:31;;;;;;;29.65;20.05;;;12.60;99.90;;;;;;5053023;28;20152;-80
2022/10/15 04:09:57;;;;;;;27.48;19.85;;;12.60;99.90;;;;;;5052213;28;20037;-80
2022/10/15 04:12:22;;;;;;;29.17;20.90;;;12.60;99.90;;;;;;5052456;28;20079;-80
2022/10/15 04:14:48;;;;;;;27.98;19.13;;;12.60;99.90;;;;;;5053943;28;20048;-79
2022/10/15 04:17:14;;;;;;;27.85;18.88;;;12.60;99.90;;;;;;5052512;28;20202;-79
2022/10/15 04:19:40;;;;;;;33.40;21.00;;;12.60;99.90;;;;;;5053560;28;20049;-79
2022/10/15 04:22:06;;;;;;;30.48;20.33;;;12.40;99.90;;;;;;5052394;28;20478;-79
2022/10/15 04:24:31;;;;;;;33.58;20.02;;;12.60;99.90;;;;;;5053726;28;20053;-80
2022/10/15 04:26:57;;;;;;;31.58;20.27;;;12.60;99.90;;;;;;5053672;28;20505;-79
2022/10/15 04:29:23;;;;;;;31.73;19.23;;;12.60;99.90;;;;;;5053978;28;20061;-82
2022/10/15 04:31:48;;;;;;;32.30;21.77;;;12.60;99.90;;;;;;5053569;28;20048;-80
2022/10/15 04:34:14;;;;;;;31.48;19.80;;;12.60;99.90;;;;;;5053891;28;20467;-82
2022/10/15 04:36:40;;;;;;;33.85;23.20;;;12.60;99.90;;;;;;5053250;28;20053;-81
2022/10/15 04:39:05;;;;;;;33.83;22.20;;;13.10;99.90;;;;;;5054022;28;20106;-79
2022/10/15 04:41:31;;;;;;;27.50;17.95;;;12.50;99.90;;;;;;5053470;28;20455;-81
2022/10/15 04:43:57;;;;;;;35.17;21.40;;;12.50;99.90;;;;;;5053213;28;20122;-80
2022/10/15 04:46:24;;;;;;;35.08;22.02;;;12.50;99.90;;;;;;5053608;28;20201;-80
2022/10/15 04:48:49;;;;;;;31.88;19.67;;;12.50;99.90;;;;;;5053046;28;20083;-79
2022/10/15 04:51:18;;;;;;;36.08;22.73;;;12.50;99.90;;;;;;5053080;28;20119;-80
2022/10/15 04:53:44;;;;;;;29.48;21.08;;;12.50;99.90;;;;;;5052788;28;20483;-80
2022/10/15 04:56:16;;;;;;;30.80;21.45;;;12.50;99.90;;;;;;5053146;28;20064;-80
2022/10/15 04:58:43;;;;;;;30.70;21.10;;;12.50;99.90;;;;;;5053092;28;20128;-80
2022/10/15 05:01:12;;;;;;;30.88;19.90;;;12.50;99.90;;;;;;5052578;28;20044;-80
2022/10/15 05:03:43;;;;;;;34.83;20.95;;;12.50;99.90;;;;;;5052810;28;20080;-79
2022/10/15 05:06:18;;;;;;;28.83;19.23;;;12.50;99.90;;;;;;5052886;28;20036;-79
2022/10/15 05:08:44;;;;;;;29.85;19.08;;;12.50;99.90;;;;;;5052784;28;20044;-83
2022/10/15 05:11:14;;;;;;;35.72;22.67;;;12.50;99.90;;;;;;5053759;28;20044;-80
2022/10/15 05:13:40;;;;;;;29.10;18.50;;;12.40;99.90;;;;;;5052930;28;20494;-81
2022/10/15 05:16:13;;;;;;;33.53;21.40;;;12.50;99.90;;;;;;5052728;28;20105;-79
2022/10/15 05:18:40;;;;;;;37.33;22.98;;;12.50;99.90;;;;;;5052297;28;20052;-80
2022/10/15 05:21:07;;;;;;;41.25;22.95;;;12.40;99.90;;;;;;5052054;28;20132;-80
2022/10/15 05:23:33;;;;;;;34.90;23.40;;;12.40;99.90;;;;;;5051755;28;20045;-82
2022/10/15 05:26:05;;;;;;;39.90;24.15;;;12.40;99.90;;;;;;5052158;28;20041;-80
2022/10/15 05:28:31;;;;;;;39.50;24.90;;;12.40;99.90;;;;;;5052305;28;20085;-80
2022/10/15 05:31:06;;;;;;;32.38;21.05;;;12.40;99.90;;;;;;5051834;28;20469;-80
2022/10/15 05:33:33;;;;;;;41.50;25.13;;;12.40;99.90;;;;;;5052012;28;20137;-81
2022/10/15 05:36:31;;;;;;;38.67;25.25;;;12.40;99.90;;;;;;5051698;28;20498;-80
2022/10/15 05:38:59;;;;;;;37.58;24.80;;;12.30;99.90;;;;;;5018407;28;20135;-82
2022/10/15 05:41:25;;;;;;;34.92;24.13;;;12.30;99.90;;;;;;5051904;28;20500;-81
2022/10/15 05:43:53;;;;;;;43.17;26.58;;;12.30;99.90;;;;;;5052170;28;20041;-79
2022/10/15 05:46:19;;;;;;;39.03;24.17;;;12.30;99.90;;;;;;5052156;28;20048;-79
2022/10/15 05:48:56;;;;;;;47.45;29.52;;;12.30;99.90;;;;;;5052442;28;20053;-82
2022/10/15 05:51:23;;;;;;;39.65;26.38;;;12.20;99.90;;;;;;5052631;28;20048;-79
2022/10/15 05:53:53;;;;;;;43.55;28.15;;;12.20;99.90;;;;;;5052177;28;20075;-79
2022/10/15 05:56:19;;;;;;;36.47;25.27;;;12.20;99.90;;;;;;5052130;28;20049;-78
2022/10/15 05:58:45;;;;;;;43.72;27.73;;;12.20;99.90;;;;;;5051949;28;20057;-80
2022/10/15 06:01:12;;;;;;;44.17;29.10;;;12.20;99.90;;;;;;5051907;28;20446;-81
2022/10/15 06:03:41;;;;;;;43.70;28.92;;;12.20;99.90;;;;;;5051986;28;20060;-81
2022/10/15 06:06:33;;;;;;;42.08;28.20;;;12.20;99.90;;;;;;5052257;28;20049;-83
2022/10/15 06:09:00;;;;;;;39.20;25.83;;;12.20;99.90;;;;;;5047338;28;20065;-79
2022/10/15 06:11:26;;;;;;;44.20;28.05;;;12.20;99.90;;;;;;5052280;28;20053;-82
2022/10/15 06:13:52;;;;;;;47.65;27.50;;;12.20;99.90;;;;;;5050675;28;20049;-80
2022/10/15 06:16:17;;;;;;;45.20;29.52;;;12.20;99.90;;;;;;5052299;28;20048;-82
2022/10/15 06:18:43;;;;;;;44.78;29.65;;;12.20;99.90;;;;;;5051940;28;20409;-80
2022/10/15 06:21:10;;;;;;;47.92;29.40;;;12.20;99.90;;;;;;5050644;28;20542;-79
2022/10/15 06:23:36;;;;;;;43.88;28.60;;;12.30;99.90;;;;;;5051927;28;20420;-79
2022/10/15 06:26:07;;;;;;;52.25;29.13;;;12.30;99.90;;;;;;5051784;28;20487;-79
2022/10/15 06:28:33;;;;;;;46.17;28.75;;;12.30;99.90;;;;;;5050739;28;20408;-79
2022/10/15 06:31:00;;;;;;;45.17;26.77;;;12.30;99.90;;;;;;5051506;28;20063;-78
2022/10/15 06:33:27;;;;;;;44.58;27.33;;;12.30;99.90;;;;;;5051729;28;20045;-80
2022/10/15 06:35:53;;;;;;;44.75;30.88;;;12.40;99.90;;;;;;5055229;28;20055;-82
2022/10/15 06:38:19;;;;;;;42.42;28.08;;;12.40;99.90;;;;;;5055786;28;20041;-77
2022/10/15 06:40:45;;;;;;;45.33;28.10;;;12.40;99.90;;;;;;5055280;28;20045;-84
2022/10/15 06:43:10;;;;;;;44.10;29.65;;;12.20;99.90;;;;;;5054417;28;20498;-82
2022/10/15 06:45:38;;;;;;;42.85;28.17;;;12.40;99.90;;;;;;5054992;28;20044;-83
2022/10/15 06:48:04;;;;;;;44.15;28.27;;;12.50;99.90;;;;;;5055180;28;20134;-82
2022/10/15 06:50:31;;;;;;;50.55;30.00;;;12.40;99.90;;;;;;5055207;28;20090;-78
2022/10/15 06:52:57;;;;;;;49.53;28.55;;;12.50;99.90;;;;;;5055166;28;20072;-79
2022/10/15 06:55:23;;;;;;;45.28;30.02;;;12.50;99.90;;;;;;5055227;28;21784;-77
2022/10/15 06:57:49;;;;;;;40.20;28.52;;;12.50;99.90;;;;;;5055245;28;20045;-77
2022/10/15 07:00:16;;;;;;;49.60;30.38;;;12.60;99.90;;;;;;5054016;28;20052;-77
2022/10/15 07:02:42;;;;;;;49.20;29.63;;;12.60;99.90;;;;;;5055259;28;20056;-77
2022/10/15 07:05:08;;;;;;;47.72;28.33;;;12.60;99.90;;;;;;5055205;28;20044;-79
2022/10/15 07:07:34;;;;;;;43.60;28.35;;;12.60;99.90;;;;;;5054798;28;20106;-78
2022/10/15 07:09:59;;;;;;;48.17;30.90;;;12.70;99.90;;;;;;5037391;28;20048;-78
2022/10/15 07:12:25;;;;;;;44.30;27.88;;;12.70;99.90;;;;;;5054982;28;20056;-79
2022/10/15 07:14:51;;;;;;;48.00;29.70;;;12.70;99.90;;;;;;5054445;28;20561;-79
2022/10/15 07:17:16;;;;;;;51.80;30.42;;;12.70;99.90;;;;;;5054589;28;20048;-78
2022/10/15 07:19:42;;;;;;;44.05;29.42;;;12.80;99.90;;;;;;5054257;28;20459;-78
2022/10/15 07:22:09;;;;;;;46.55;28.27;;;12.80;99.90;;;;;;5054524;28;20041;-78
2022/10/15 07:24:35;;;;;;;43.15;26.90;;;12.90;99.90;;;;;;5054893;28;20448;-78
2022/10/15 07:27:01;;;;;;;55.92;30.42;;;12.90;99.90;;;;;;5054439;28;20541;-78
2022/10/15 07:29:27;;;;;;;49.13;27.55;;;13.00;99.90;;;;;;5054491;28;20401;-78
2022/10/15 07:31:52;;;;;;;44.78;27.52;;;13.00;99.90;;;;;;5054185;28;20128;-78
2022/10/15 07:34:18;;;;;;;40.88;27.75;;;13.10;99.90;;;;;;5054357;28;20483;-79
2022/10/15 07:36:44;;;;;;;42.80;28.55;;;13.20;99.90;;;;;;5054211;28;20049;-79
2022/10/15 07:39:10;;;;;;;39.50;26.75;;;13.90;99.90;;;;;;5053020;28;20057;-79
2022/10/15 07:41:35;;;;;;;44.40;25.33;;;13.30;99.90;;;;;;5054281;28;20129;-79
2022/10/15 07:44:01;;;;;;;43.63;26.40;;;13.40;99.90;;;;;;5054310;28;20075;-78
2022/10/15 07:46:27;;;;;;;45.95;24.58;;;13.40;99.90;;;;;;5054140;28;20045;-79
2022/10/15 07:48:53;;;;;;;40.22;26.73;;;13.40;99.90;;;;;;5054011;28;20195;-79
2022/10/15 07:51:18;;;;;;;43.60;26.02;;;13.40;99.90;;;;;;5054621;28;20056;-79
2022/10/15 07:53:46;;;;;;;37.03;24.08;;;13.50;99.90;;;;;;5052950;28;20443;-79
2022/10/15 07:56:13;;;;;;;44.53;27.08;;;13.50;99.90;;;;;;5054014;28;20139;-73
2022/10/15 07:58:40;;;;;;;41.78;25.50;;;13.50;99.90;;;;;;5054162;28;20133;-72
2022/10/15 08:01:07;;;;;;;38.72;23.52;;;13.70;99.90;;;;;;5053702;28;20056;-72
2022/10/15 08:03:33;;;;;;;41.35;23.92;;;13.70;99.90;;;;;;5053611;28;20045;-72
2022/10/15 08:06:01;;;;;;;42.97;26.42;;;13.80;99.90;;;;;;5054206;28;20040;-78
2022/10/15 08:08:27;;;;;;;38.67;24.30;;;13.90;99.90;;;;;;5053972;28;20470;-78
2022/10/15 08:10:52;;;;;;;41.22;25.02;;;13.90;99.90;;;;;;5054763;28;20037;-78
2022/10/15 08:13:18;;;;;;;38.47;23.35;;;14.10;99.90;;;;;;5054143;28;20036;-78
2022/10/15 08:15:44;;;;;;;42.00;24.90;;;14.10;99.90;;;;;;5053202;28;20044;-78
2022/10/15 08:18:10;;;;;;;39.45;24.67;;;14.20;99.90;;;;;;5052556;28;20461;-79
2022/10/15 08:20:37;;;;;;;41.92;24.42;;;14.30;99.90;;;;;;5053612;28;20489;-79
2022/10/15 08:23:03;;;;;;;39.40;23.30;;;14.30;99.90;;;;;;5053517;28;20072;-80
2022/10/15 08:25:30;;;;;;;35.05;22.35;;;14.40;99.90;;;;;;5053253;28;20459;-80
2022/10/15 08:27:56;;;;;;;35.28;24.15;;;14.50;99.90;;;;;;5053664;28;20049;-80
2022/10/15 08:30:22;;;;;;;41.00;25.35;;;14.50;99.90;;;;;;5051830;28;20115;-79
2022/10/15 08:32:48;;;;;;;38.60;24.15;;;14.50;99.90;;;;;;5053609;28;20498;-79
2022/10/15 08:35:13;;;;;;;39.45;25.63;;;14.50;99.90;;;;;;5053249;28;20498;-78
2022/10/15 08:37:39;;;;;;;40.05;24.38;;;14.60;99.90;;;;;;5053001;28;20451;-79
2022/10/15 08:40:06;;;;;;;41.65;24.42;;;14.70;99.90;;;;;;5052835;28;20044;-80
2022/10/15 08:42:41;;;;;;;41.00;25.15;;;14.70;99.90;;;;;;5052579;28;20488;-80
2022/10/15 08:45:10;;;;;;;40.95;25.10;;;14.90;99.90;;;;;;5052949;28;20136;-78
2022/10/15 08:47:47;;;;;;;36.15;23.08;;;15.00;99.90;;;;;;5052061;28;20478;-79
2022/10/15 08:50:46;;;;;;;40.03;25.63;;;15.00;99.90;;;;;;5052941;28;20151;-79
2022/10/15 08:53:17;;;;;;;37.45;22.85;;;14.90;99.90;;;;;;5053007;28;20045;-79
2022/10/15 08:55:47;;;;;;;36.53;24.20;;;14.80;99.90;;;;;;5052144;28;20132;-78
2022/10/15 08:58:19;;;;;;;38.15;22.00;;;14.60;99.90;;;;;;5052129;28;20125;-78
2022/10/15 09:01:25;;;;;;;35.33;22.30;;;14.60;99.90;;;;;;5053103;28;20049;-79
2022/10/15 09:04:16;;;;;;;33.30;22.52;;;14.50;99.90;;;;;;4991000;28;20100;-79
2022/10/15 09:06:42;;;;;;;33.30;21.05;;;14.50;99.90;;;;;;5052774;28;20066;-79
2022/10/15 09:09:16;;;;;;;35.40;23.52;;;14.70;99.90;;;;;;5052360;28;20551;-80
2022/10/15 09:12:12;;;;;;;36.13;24.38;;;14.80;99.90;;;;;;5052670;28;20045;-79
2022/10/15 09:14:42;;;;;;;34.95;23.63;;;15.10;99.90;;;;;;5052878;28;20051;-79
2022/10/15 09:17:27;;;;;;;40.58;23.13;;;15.30;99.90;;;;;;5051705;28;20097;-80
2022/10/15 09:19:56;;;;;;;30.85;22.08;;;15.20;99.90;;;;;;5052656;28;20083;-79
2022/10/15 09:22:26;;;;;;;38.72;23.38;;;15.30;99.90;;;;;;5052334;28;20107;-80
2022/10/15 09:24:52;;;;;;;34.30;21.15;;;15.30;99.90;;;;;;5052738;28;20106;-80
2022/10/15 09:27:36;;;;;;;36.17;22.45;;;15.30;99.90;;;;;;5052309;28;20040;-80
2022/10/15 09:30:20;;;;;;;34.88;20.38;;;15.30;99.90;;;;;;5052771;28;20072;-80
2022/10/15 09:33:16;;;;;;;30.10;19.75;;;15.20;99.90;;;;;;5052659;28;20128;-79
2022/10/15 09:35:52;;;;;;;29.95;19.38;;;15.20;99.90;;;;;;5052507;28;20085;-79
2022/10/15 09:38:53;;;;;;;31.70;18.77;;;15.10;99.90;;;;;;5052089;28;20475;-80
2022/10/15 09:41:28;;;;;;;30.58;20.05;;;15.00;99.90;;;;;;4990643;28;20057;-80
2022/10/15 09:43:56;;;;;;;37.40;19.60;;;14.90;99.90;;;;;;5043582;28;20048;-81
2022/10/15 09:46:22;;;;;;;26.73;20.05;;;14.90;99.90;;;;;;5052220;28;20055;-81
2022/10/15 09:48:54;;;;;;;29.75;20.77;;;14.80;99.90;;;;;;5052148;28;20049;-78
2022/10/15 09:51:34;;;;;;;31.23;19.42;;;14.80;99.90;;;;;;5052218;28;20549;-80
2022/10/15 09:54:28;;;;;;;32.72;20.60;;;14.70;99.90;;;;;;5052081;28;20088;-80
2022/10/15 09:56:55;;;;;;;34.47;21.98;;;14.60;99.90;;;;;;5051998;28;20053;-81
2022/10/15 09:59:23;;;;;;;34.38;21.40;;;14.50;99.90;;;;;;5051825;28;20057;-82
2022/10/15 10:02:00;;;;;;;31.80;20.73;;;14.50;99.90;;;;;;5052002;28;20107;-81
2022/10/15 10:04:32;;;;;;;30.52;18.20;;;14.50;99.90;;;;;;5052047;28;20041;-82
2022/10/15 10:07:01;;;;;;;25.73;17.40;;;14.50;99.90;;;;;;5052187;28;20484;-81
2022/10/15 10:09:58;;;;;;;27.00;18.60;;;14.50;99.90;;;;;;5053634;28;20041;-79
2022/10/15 10:12:27;;;;;;;28.77;16.02;;;14.40;99.90;;;;;;5043394;28;20057;-81
2022/10/15 10:14:59;;;;;;;24.25;16.27;;;14.40;99.90;;;;;;5056099;28;20075;-80
2022/10/15 10:17:27;;;;;;;26.52;15.43;;;14.40;99.90;;;;;;5055746;28;20072;-80
2022/10/15 10:20:08;;;;;;;28.42;15.95;;;14.40;99.90;;;;;;5056023;28;20045;-80
2022/10/15 10:22:46;;;;;;;26.73;15.52;;;14.30;99.90;;;;;;5055612;28;20044;-81
2022/10/15 10:25:43;;;;;;;25.88;14.13;;;14.30;99.90;;;;;;5056302;28;20059;-80
2022/10/15 10:28:10;;;;;;;24.50;15.30;;;14.20;99.90;;;;;;5055774;28;20048;-80
2022/10/15 10:30:59;;;;;;;21.52;13.75;;;14.30;99.90;;;;;;5055555;28;20049;-81
2022/10/15 10:33:29;;;;;;;26.90;15.27;;;14.30;99.90;;;;;;5088471;28;20041;-81
2022/10/15 10:35:55;;;;;;;23.35;13.88;;;14.30;99.90;;;;;;5055179;28;20057;-81
2022/10/15 10:38:41;;;;;;;23.98;15.38;;;14.30;99.90;;;;;;5055815;28;20544;-81
2022/10/15 10:41:09;;;;;;;25.58;14.57;;;14.40;99.90;;;;;;5055287;28;20049;-81
2022/10/15 10:43:38;;;;;;;26.58;15.25;;;14.40;99.90;;;;;;5055295;28;20053;-80
2022/10/15 10:46:13;;;;;;;27.08;14.80;;;14.40;99.90;;;;;;5055332;28;20369;-81
2022/10/15 10:48:50;;;;;;;29.88;15.05;;;14.50;99.90;;;;;;5055269;28;20491;-80
2022/10/15 10:51:25;;;;;;;20.30;13.60;;;14.50;99.90;;;;;;5055870;28;20068;-81
2022/10/15 10:54:05;;;;;;;23.33;14.07;;;14.70;99.90;;;;;;5054905;28;20402;-80
2022/10/15 10:56:41;;;;;;;26.05;14.55;;;14.90;99.90;;;;;;5055137;28;20095;-81
2022/10/15 10:59:15;;;;;;;23.73;14.05;;;14.90;99.90;;;;;;5055501;28;20064;-81
2022/10/15 11:01:41;;;;;;;22.92;14.05;;;15.00;99.90;;;;;;5055173;28;20041;-80
2022/10/15 11:04:29;;;;;;;25.70;14.73;;;15.00;99.90;;;;;;5055638;28;20053;-80
2022/10/15 11:07:05;;;;;;;21.70;14.55;;;15.00;99.90;;;;;;5055189;28;20036;-81
2022/10/15 11:09:57;;;;;;;24.48;14.55;;;15.00;99.90;;;;;;5056055;28;20076;-80
2022/10/15 11:12:45;;;;;;;22.15;12.95;;;15.10;99.90;;;;;;5056869;28;20052;-79
2022/10/15 11:15:41;;;;;;;25.23;14.40;;;15.30;99.90;;;;;;5056531;28;20119;-80
2022/10/15 11:18:31;;;;;;;20.55;12.77;;;15.70;99.90;;;;;;5056312;28;20053;-80
2022/10/15 11:21:10;;;;;;;19.25;13.32;;;15.80;99.90;;;;;;5055252;28;20045;-81
2022/10/15 11:24:10;;;;;;;20.52;12.27;;;15.90;99.90;;;;;;5054611;28;20446;-81
2022/10/15 11:27:17;;;;;;;20.58;11.43;;;15.90;99.90;;;;;;5054921;28;20098;-81
2022/10/15 11:29:57;;;;;;;19.48;11.95;;;16.10;99.90;;;;;;5054157;28;20556;-69
2022/10/15 11:32:44;;;;;;;20.27;12.52;;;16.20;99.90;;;;;;5054652;28;20049;-81
2022/10/15 11:35:33;;;;;;;18.85;10.95;;;16.10;99.90;;;;;;5054435;28;20044;-80
2022/10/15 11:38:07;;;;;;;14.55;10.13;;;16.20;99.90;;;;;;5043552;28;20096;-80
2022/10/15 11:40:59;;;;;;;19.17;11.60;;;16.20;99.90;;;;;;5054162;28;20084;-80
2022/10/15 11:43:46;;;;;;;17.65;10.82;;;16.10;99.90;;;;;;5054836;28;20072;-79
2022/10/15 11:46:32;;;;;;;19.23;11.25;;;16.00;99.90;;;;;;5053988;28;20133;-81
2022/10/15 11:49:25;;;;;;;18.05;10.70;;;16.00;99.90;;;;;;5053573;28;20057;-80
2022/10/15 11:52:06;;;;;;;20.85;11.57;;;16.00;99.90;;;;;;5054572;28;20118;-80
2022/10/15 11:54:46;;;;;;;18.83;12.40;;;16.00;99.90;;;;;;5053922;28;20080;-80
2022/10/15 11:57:16;;;;;;;15.88;10.32;;;16.10;99.90;;;;;;5053699;28;20057;-81
2022/10/15 12:00:00;;;;;;;21.08;11.38;;;16.10;99.90;;;;;;5053938;28;20059;-81
2022/10/15 12:02:33;;;;;;;20.23;10.82;;;16.20;99.90;;;;;;5053829;28;20053;-81
2022/10/15 12:05:13;;;;;;;17.90;11.20;;;16.20;99.90;;;;;;5053699;28;20048;-81
2022/10/15 12:07:44;;;;;;;18.92;11.10;;;16.10;99.90;;;;;;5053548;28;20051;-80
2022/10/15 12:10:43;;;;;;;16.15;10.23;;;16.10;99.90;;;;;;5053472;28;20041;-81
2022/10/15 12:13:23;;;;;;;18.08;10.38;;;15.90;99.90;;;;;;5053542;28;20051;-81
2022/10/15 12:16:06;;;;;;;18.25;10.80;;;16.00;99.90;;;;;;5053960;28;20048;-81
2022/10/15 12:18:50;;;;;;;;;;;16.10;99.90;;;;;;5053794;28;20048;-80
2022/10/15 12:21:28;;;;;;;15.70;9.45;;;16.10;99.90;;;;;;5053530;28;20383;-80
2022/10/15 12:23:54;;;;;;;15.23;10.27;;;16.20;99.90;;;;;;5053339;28;20053;-81
2022/10/15 12:26:31;;;;;;;17.65;10.38;;;16.20;99.90;;;;;;5053458;28;20049;-80
2022/10/15 12:28:59;;;;;;;16.75;11.30;;;16.20;99.90;;;;;;5062452;28;20049;-80
2022/10/15 12:31:41;;;;;;;16.50;10.30;;;16.30;99.90;;;;;;5059582;28;20098;-79
2022/10/15 12:34:28;;;;;;;16.80;10.10;;;16.30;99.90;;;;;;5052903;28;20049;-80
2022/10/15 12:37:03;;;;;;;16.63;11.50;;;16.20;99.90;;;;;;5052220;28;20061;-81
2022/10/15 12:39:29;;;;;;;15.38;11.40;;;16.20;99.90;;;;;;5053279;28;20140;-81
2022/10/15 12:41:55;;;;;;;16.98;10.82;;;16.20;99.90;;;;;;5053338;28;20119;-80
2022/10/15 12:44:32;;;;;;;18.67;11.88;;;16.10;99.90;;;;;;5052919;28;20483;-80
2022/10/15 12:46:58;;;;;;;15.95;11.27;;;16.10;99.90;;;;;;5053257;28;20051;-80
2022/10/15 12:49:30;;;;;;;17.35;10.90;;;16.10;99.90;;;;;;5052947;28;20044;-80
2022/10/15 12:52:00;;;;;;;16.08;9.88;;;16.10;99.90;;;;;;5053039;28;20057;-81